createdAt,value
2017-03-01T00:00:41.288Z,1.36
2017-03-01T00:01:52.000Z,1.42
2017-03-01T00:03:02.699Z,1.36
2017-03-01T00:04:13.402Z,1.32
2017-03-01T00:05:23.699Z,1.36
2017-03-01T00:06:34.391Z,1.39
2017-03-01T00:07:45.407Z,1.31
2017-03-01T00:08:56.109Z,1.4
2017-03-01T00:10:06.819Z,1.36
2017-03-01T00:11:17.119Z,1.31
2017-03-01T00:12:27.832Z,1.3
2017-03-01T00:13:38.531Z,1.48
2017-03-01T00:14:49.269Z,1.43
2017-03-01T00:15:59.962Z,1.4
2017-03-01T00:17:10.675Z,1.49
2017-03-01T00:18:21.381Z,1.46
2017-03-01T00:19:31.701Z,1.5
2017-03-01T00:20:42.419Z,1.49
2017-03-01T00:21:53.136Z,1.56
2017-03-01T00:23:03.835Z,1.52
2017-03-01T00:24:14.544Z,1.53
2017-03-01T00:25:25.244Z,1.53
2017-03-01T00:26:35.932Z,1.57
2017-03-01T00:27:46.644Z,1.58
2017-03-01T00:28:57.344Z,1.66
2017-03-01T00:30:08.036Z,1.61
2017-03-01T00:31:18.750Z,1.67
2017-03-01T00:32:29.448Z,1.68
2017-03-01T00:33:39.748Z,1.7
2017-03-01T00:34:50.467Z,1.76
2017-03-01T00:36:01.186Z,1.81
2017-03-01T00:37:11.887Z,1.84
2017-03-01T00:38:22.591Z,1.79
2017-03-01T00:39:32.504Z,1.85
2017-03-01T00:40:42.797Z,1.86
2017-03-01T00:41:53.498Z,1.88
2017-03-01T00:43:04.205Z,1.86
2017-03-01T00:44:14.912Z,1.84
2017-03-01T00:45:25.627Z,1.84
2017-03-01T00:46:35.925Z,1.85
2017-03-01T00:47:46.642Z,1.93
2017-03-01T00:49:01.178Z,1.84
2017-03-01T00:50:11.869Z,1.82
2017-03-01T00:51:22.580Z,1.82
2017-03-01T00:52:33.289Z,1.88
2017-03-01T00:53:44.008Z,1.81
2017-03-01T00:54:54.713Z,1.84
2017-03-01T00:56:05.019Z,1.78
2017-03-01T00:57:15.711Z,1.71
2017-03-01T00:58:26.415Z,1.71
2017-03-01T00:59:36.354Z,1.61
2017-03-01T01:00:47.054Z,1.6
2017-03-01T01:01:57.745Z,1.64
2017-03-01T01:03:08.449Z,1.64
2017-03-01T01:04:19.158Z,1.64
2017-03-01T01:05:29.468Z,1.58
2017-03-01T01:06:40.197Z,1.7
2017-03-01T01:07:50.506Z,1.6
2017-03-01T01:09:01.197Z,1.57
2017-03-01T01:10:11.517Z,1.56
2017-03-01T01:11:22.226Z,1.52
2017-03-01T01:12:32.922Z,1.53
2017-03-01T01:13:43.632Z,1.42
2017-03-01T01:14:54.366Z,1.49
2017-03-01T01:16:05.058Z,1.48
2017-03-01T01:17:15.364Z,1.34
2017-03-01T01:18:25.681Z,1.34
2017-03-01T01:19:36.376Z,1.43
2017-03-01T01:20:47.095Z,1.4
2017-03-01T01:21:57.404Z,1.32
2017-03-01T01:23:08.104Z,1.4
2017-03-01T01:24:18.807Z,1.3
2017-03-01T01:25:29.515Z,1.38
2017-03-01T01:26:40.226Z,1.4
2017-03-01T01:27:50.537Z,1.43
2017-03-01T01:29:01.266Z,1.34
2017-03-01T01:30:11.972Z,1.39
2017-03-01T01:31:22.673Z,1.38
2017-03-01T01:32:33.389Z,1.32
2017-03-01T01:33:44.109Z,1.34
2017-03-01T01:34:54.418Z,1.34
2017-03-01T01:36:05.129Z,1.39
2017-03-01T01:37:15.830Z,1.38
2017-03-01T01:38:26.538Z,1.32
2017-03-01T01:39:37.250Z,1.38
2017-03-01T01:40:47.947Z,1.39
2017-03-01T01:41:58.673Z,1.36
2017-03-01T01:43:09.367Z,1.39
2017-03-01T01:44:20.074Z,1.42
2017-03-01T01:45:30.783Z,1.42
2017-03-01T01:46:41.102Z,1.48
2017-03-01T01:47:51.811Z,1.34
2017-03-01T01:49:02.532Z,1.42
2017-03-01T01:50:13.223Z,1.39
2017-03-01T01:51:23.920Z,1.45
2017-03-01T01:52:34.220Z,1.32
2017-03-01T01:53:44.931Z,1.48
2017-03-01T01:54:55.246Z,1.5
2017-03-01T01:56:05.957Z,1.49
2017-03-01T01:57:16.280Z,1.48
2017-03-01T01:58:26.581Z,1.53
2017-03-01T01:59:37.306Z,1.5
2017-03-01T02:00:48.008Z,1.5
2017-03-01T02:01:58.700Z,1.56
2017-03-01T02:03:09.413Z,1.57
2017-03-01T02:04:20.120Z,1.52
2017-03-01T02:05:30.433Z,1.52
2017-03-01T02:06:41.143Z,1.49
2017-03-01T02:07:51.449Z,1.53
2017-03-01T02:09:02.166Z,1.56
2017-03-01T02:10:12.861Z,1.56
2017-03-01T02:11:23.589Z,1.52
2017-03-01T02:12:34.314Z,1.56
2017-03-01T02:13:45.011Z,1.53
2017-03-01T02:14:55.326Z,1.57
2017-03-01T02:16:05.675Z,1.53
2017-03-01T02:17:16.371Z,1.53
2017-03-01T02:18:27.081Z,1.6
2017-03-01T02:19:37.798Z,1.58
2017-03-01T02:20:48.488Z,1.57
2017-03-01T02:21:59.196Z,1.7
2017-03-01T02:23:09.916Z,1.66
2017-03-01T02:24:20.632Z,1.64
2017-03-01T02:25:30.927Z,1.7
2017-03-01T02:26:41.661Z,1.85
2017-03-01T02:27:52.361Z,1.81
2017-03-01T02:29:03.101Z,1.84
2017-03-01T02:30:13.795Z,1.81
2017-03-01T02:31:24.103Z,1.84
2017-03-01T02:32:34.811Z,1.84
2017-03-01T02:33:45.518Z,1.79
2017-03-01T02:34:56.234Z,1.78
2017-03-01T02:36:06.953Z,1.86
2017-03-01T02:37:17.671Z,1.74
2017-03-01T02:38:27.991Z,1.74
2017-03-01T02:39:38.692Z,1.74
2017-03-01T02:40:49.403Z,1.84
2017-03-01T02:42:00.120Z,1.75
2017-03-01T02:43:10.434Z,1.7
2017-03-01T02:44:21.160Z,1.74
2017-03-01T02:45:31.885Z,1.75
2017-03-01T02:46:42.602Z,1.75
2017-03-01T02:47:52.901Z,1.67
2017-03-01T02:49:03.610Z,1.67
2017-03-01T02:50:13.928Z,1.68
2017-03-01T02:51:24.633Z,1.67
2017-03-01T02:52:35.046Z,1.66
2017-03-01T02:53:45.769Z,1.75
2017-03-01T02:54:56.498Z,1.6
2017-03-01T02:56:07.225Z,1.7
2017-03-01T02:57:17.924Z,1.7
2017-03-01T02:58:28.643Z,1.61
2017-03-01T02:59:39.377Z,1.57
2017-03-01T03:00:50.083Z,1.6
2017-03-01T03:02:00.388Z,1.6
2017-03-01T03:03:11.121Z,1.61
2017-03-01T03:04:21.837Z,1.64
2017-03-01T03:05:32.535Z,1.66
2017-03-01T03:06:43.245Z,1.63
2017-03-01T03:07:53.934Z,1.7
2017-03-01T03:09:04.647Z,1.7
2017-03-01T03:10:15.369Z,1.68
2017-03-01T03:11:25.685Z,1.61
2017-03-01T03:12:36.389Z,1.68
2017-03-01T03:13:47.105Z,1.75
2017-03-01T03:14:57.831Z,1.67
2017-03-01T03:16:08.143Z,1.68
2017-03-01T03:17:18.862Z,1.67
2017-03-01T03:18:29.174Z,1.63
2017-03-01T03:19:39.881Z,1.58
2017-03-01T03:20:50.574Z,1.57
2017-03-01T03:22:01.274Z,1.57
2017-03-01T03:23:11.999Z,1.5
2017-03-01T03:24:22.699Z,1.5
2017-03-01T03:25:33.016Z,1.49
2017-03-01T03:26:43.326Z,1.57
2017-03-01T03:27:54.024Z,1.57
2017-03-01T03:29:04.740Z,1.58
2017-03-01T03:30:15.476Z,1.6
2017-03-01T03:31:25.787Z,1.61
2017-03-01T03:32:36.492Z,1.63
2017-03-01T03:33:47.197Z,1.75
2017-03-01T03:34:57.917Z,1.61
2017-03-01T03:36:08.650Z,1.7
2017-03-01T03:37:19.355Z,1.67
2017-03-01T03:38:29.668Z,1.64
2017-03-01T03:39:40.378Z,1.58
2017-03-01T03:40:51.073Z,1.67
2017-03-01T03:42:01.784Z,1.6
2017-03-01T03:43:12.099Z,1.67
2017-03-01T03:44:22.800Z,1.68
2017-03-01T03:45:33.515Z,1.76
2017-03-01T03:46:44.227Z,1.7
2017-03-01T03:47:54.941Z,1.78
2017-03-01T03:49:05.654Z,1.75
2017-03-01T03:50:16.363Z,1.82
2017-03-01T03:51:26.666Z,1.84
2017-03-01T03:52:36.564Z,1.79
2017-03-01T03:53:46.891Z,1.84
2017-03-01T03:54:57.218Z,1.88
2017-03-01T03:56:07.940Z,1.93
2017-03-01T03:57:18.664Z,1.79
2017-03-01T03:58:29.386Z,1.93
2017-03-01T03:59:40.104Z,1.89
2017-03-01T04:00:50.815Z,1.88
2017-03-01T04:02:01.523Z,1.82
2017-03-01T04:03:11.822Z,1.84
2017-03-01T04:04:22.119Z,1.75
2017-03-01T04:05:32.834Z,1.7
2017-03-01T04:06:43.544Z,1.68
2017-03-01T04:07:54.243Z,1.7
2017-03-01T04:09:04.944Z,1.74
2017-03-01T04:10:15.656Z,1.74
2017-03-01T04:11:26.365Z,1.74
2017-03-01T04:12:37.067Z,1.66
2017-03-01T04:13:47.363Z,1.74
2017-03-01T04:14:58.068Z,1.67
2017-03-01T04:16:08.396Z,1.58
2017-03-01T04:17:19.113Z,1.56
2017-03-01T04:18:29.421Z,1.58
2017-03-01T04:19:40.116Z,1.52
2017-03-01T04:20:50.846Z,1.49
2017-03-01T04:22:01.569Z,1.42
2017-03-01T04:23:12.282Z,1.45
2017-03-01T04:24:22.991Z,1.52
2017-03-01T04:25:33.712Z,1.46
2017-03-01T04:26:44.025Z,1.5
2017-03-01T04:27:54.327Z,1.36
2017-03-01T04:29:05.033Z,1.4
2017-03-01T04:30:15.754Z,1.36
2017-03-01T04:31:26.054Z,1.43
2017-03-01T04:32:36.763Z,1.39
2017-03-01T04:33:47.479Z,1.4
2017-03-01T04:34:58.176Z,1.46
2017-03-01T04:36:08.869Z,1.49
2017-03-01T04:37:19.571Z,1.46
2017-03-01T04:38:29.872Z,1.45
2017-03-01T04:39:40.167Z,1.49
2017-03-01T04:40:50.898Z,1.52
2017-03-01T04:42:01.215Z,1.56
2017-03-01T04:43:11.515Z,1.56
2017-03-01T04:44:21.831Z,1.53
2017-03-01T04:45:32.547Z,1.49
2017-03-01T04:46:43.243Z,1.48
2017-03-01T04:47:53.967Z,1.53
2017-03-01T04:49:04.670Z,1.52
2017-03-01T04:50:15.363Z,1.45
2017-03-01T04:51:26.108Z,1.53
2017-03-01T04:52:36.802Z,1.56
2017-03-01T04:53:47.496Z,1.5
2017-03-01T04:54:58.202Z,1.57
2017-03-01T04:56:08.905Z,1.53
2017-03-01T04:57:19.634Z,1.58
2017-03-01T04:58:29.949Z,1.52
2017-03-01T04:59:40.648Z,1.57
2017-03-01T05:00:51.357Z,1.56
2017-03-01T05:02:02.071Z,1.64
2017-03-01T05:03:12.760Z,1.6
2017-03-01T05:04:23.078Z,1.48
2017-03-01T05:05:33.800Z,1.61
2017-03-01T05:06:44.522Z,1.57
2017-03-01T05:07:55.258Z,1.6
2017-03-01T05:09:05.970Z,1.63
2017-03-01T05:10:16.299Z,1.64
2017-03-01T05:11:27.064Z,1.67
2017-03-01T05:12:37.388Z,1.71
2017-03-01T05:13:47.696Z,1.61
2017-03-01T05:14:58.397Z,1.7
2017-03-01T05:16:09.096Z,1.74
2017-03-01T05:17:19.801Z,1.74
2017-03-01T05:18:30.509Z,1.68
2017-03-01T05:19:41.226Z,1.67
2017-03-01T05:20:51.525Z,1.68
2017-03-01T05:22:01.819Z,1.75
2017-03-01T05:23:12.527Z,1.74
2017-03-01T05:24:23.250Z,1.71
2017-03-01T05:25:33.571Z,1.78
2017-03-01T05:26:43.883Z,1.71
2017-03-01T05:27:54.193Z,1.7
2017-03-01T05:29:04.911Z,1.7
2017-03-01T05:30:15.605Z,1.78
2017-03-01T05:31:25.921Z,1.71
2017-03-01T05:32:36.693Z,1.74
2017-03-01T05:33:47.390Z,1.78
2017-03-01T05:34:58.126Z,1.71
2017-03-01T05:36:08.422Z,1.68
2017-03-01T05:37:19.136Z,1.76
2017-03-01T05:38:29.469Z,1.76
2017-03-01T05:39:40.177Z,1.74
2017-03-01T05:40:50.881Z,1.7
2017-03-01T05:42:01.591Z,1.7
2017-03-01T05:43:12.291Z,1.68
2017-03-01T05:44:22.604Z,1.78
2017-03-01T05:45:33.335Z,1.71
2017-03-01T05:46:44.046Z,1.81
2017-03-01T05:47:54.748Z,1.78
2017-03-01T05:49:05.445Z,1.84
2017-03-01T05:50:16.182Z,1.71
2017-03-01T05:51:26.495Z,1.79
2017-03-01T05:52:36.838Z,1.85
2017-03-01T05:53:47.548Z,1.78
2017-03-01T05:54:58.278Z,1.78
2017-03-01T05:56:08.990Z,1.78
2017-03-01T05:57:19.717Z,1.71
2017-03-01T05:58:30.026Z,1.84
2017-03-01T05:59:40.740Z,1.78
2017-03-01T06:00:51.501Z,1.85
2017-03-01T06:02:02.254Z,1.74
2017-03-01T06:03:12.961Z,1.76
2017-03-01T06:04:23.698Z,1.7
2017-03-01T06:05:34.396Z,1.75
2017-03-01T06:06:45.114Z,1.75
2017-03-01T06:07:55.835Z,1.68
2017-03-01T06:09:06.547Z,1.75
2017-03-01T06:10:17.242Z,1.78
2017-03-01T06:11:27.550Z,1.71
2017-03-01T06:12:38.270Z,1.74
2017-03-01T06:13:48.586Z,1.76
2017-03-01T06:14:59.298Z,1.68
2017-03-01T06:16:09.617Z,1.7
2017-03-01T06:17:20.354Z,1.74
2017-03-01T06:18:31.167Z,1.71
2017-03-01T06:19:41.864Z,1.79
2017-03-01T06:20:52.177Z,1.71
2017-03-01T06:22:02.883Z,1.67
2017-03-01T06:23:13.592Z,1.75
2017-03-01T06:24:23.501Z,1.75
2017-03-01T06:25:33.802Z,1.68
2017-03-01T06:26:44.507Z,1.45
2017-03-01T06:27:55.278Z,1.34
2017-03-01T06:29:05.973Z,1.27
2017-03-01T06:30:16.701Z,1.25
2017-03-01T06:31:26.599Z,1.21
2017-03-01T06:32:36.913Z,1.36
2017-03-01T06:33:47.637Z,1.39
2017-03-01T06:34:58.339Z,1.39
2017-03-01T06:36:09.058Z,1.4
2017-03-01T06:37:19.757Z,1.42
2017-03-01T06:38:30.479Z,1.52
2017-03-01T06:39:41.196Z,1.5
2017-03-01T06:40:51.491Z,1.53
2017-03-01T06:42:02.211Z,1.58
2017-03-01T06:43:12.912Z,1.6
2017-03-01T06:44:23.623Z,1.66
2017-03-01T06:45:34.312Z,1.7
2017-03-01T06:46:45.023Z,1.64
2017-03-01T06:47:55.717Z,1.71
2017-03-01T06:49:06.426Z,1.66
2017-03-01T06:50:17.125Z,1.75
2017-03-01T06:51:27.823Z,1.71
2017-03-01T06:52:38.526Z,1.68
2017-03-01T06:53:49.232Z,1.61
2017-03-01T06:54:59.932Z,1.64
2017-03-01T06:56:10.633Z,1.61
2017-03-01T06:57:21.334Z,1.6
2017-03-01T06:58:31.651Z,1.7
2017-03-01T06:59:42.373Z,1.7
2017-03-01T07:00:53.086Z,1.7
2017-03-01T07:02:03.380Z,1.7
2017-03-01T07:03:14.084Z,1.74
2017-03-01T07:04:24.803Z,1.71
2017-03-01T07:05:35.102Z,1.75
2017-03-01T07:06:45.804Z,1.82
2017-03-01T07:07:56.518Z,1.79
2017-03-01T07:09:06.824Z,1.86
2017-03-01T07:10:17.135Z,1.88
2017-03-01T07:11:27.445Z,1.88
2017-03-01T07:12:38.167Z,1.86
2017-03-01T07:13:48.892Z,1.88
2017-03-01T07:14:59.609Z,1.97
2017-03-01T07:16:10.330Z,2
2017-03-01T07:17:20.253Z,1.95
2017-03-01T07:18:30.547Z,1.95
2017-03-01T07:19:41.253Z,1.97
2017-03-01T07:20:51.563Z,2.01
2017-03-01T07:22:02.271Z,2.05
2017-03-01T07:23:12.966Z,2.01
2017-03-01T07:24:23.287Z,2.08
2017-03-01T07:25:33.603Z,2.03
2017-03-01T07:26:44.337Z,2.07
2017-03-01T07:27:55.027Z,2.01
2017-03-01T07:29:05.744Z,2.04
2017-03-01T07:30:16.442Z,2
2017-03-01T07:31:26.745Z,2.1
2017-03-01T07:32:37.077Z,2.04
2017-03-01T07:33:47.780Z,2.15
2017-03-01T07:34:58.498Z,2.19
2017-03-01T07:36:08.813Z,2.23
2017-03-01T07:37:19.545Z,2.28
2017-03-01T07:38:30.273Z,2.32
2017-03-01T07:39:40.193Z,2.3
2017-03-01T07:40:50.514Z,2.28
2017-03-01T07:42:01.230Z,2.4
2017-03-01T07:43:11.935Z,2.41
2017-03-01T07:44:22.654Z,2.39
2017-03-01T07:45:32.571Z,2.4
2017-03-01T07:46:43.310Z,2.4
2017-03-01T07:47:54.007Z,2.44
2017-03-01T07:49:04.728Z,2.51
2017-03-01T07:50:15.435Z,2.54
2017-03-01T07:51:26.138Z,2.46
2017-03-01T07:52:36.842Z,2.51
2017-03-01T07:53:47.567Z,2.57
2017-03-01T07:54:58.266Z,2.58
2017-03-01T07:56:08.582Z,2.58
2017-03-01T07:57:19.289Z,2.61
2017-03-01T07:58:30.024Z,2.64
2017-03-01T07:59:40.725Z,2.64
2017-03-01T08:00:51.436Z,2.68
2017-03-01T08:02:02.134Z,2.72
2017-03-01T08:03:12.839Z,2.75
2017-03-01T08:04:23.573Z,2.72
2017-03-01T08:05:34.281Z,2.88
2017-03-01T08:06:44.976Z,2.94
2017-03-01T08:07:55.669Z,2.95
2017-03-01T08:09:05.590Z,2.95
2017-03-01T08:10:16.307Z,2.88
2017-03-01T08:11:27.025Z,2.97
2017-03-01T08:12:37.330Z,2.97
2017-03-01T08:13:48.035Z,3.01
2017-03-01T08:14:58.742Z,3.03
2017-03-01T08:16:09.447Z,3.12
2017-03-01T08:17:19.756Z,3.06
2017-03-01T08:18:30.100Z,3.16
2017-03-01T08:19:40.405Z,3.21
2017-03-01T08:20:51.146Z,3.21
2017-03-01T08:22:01.853Z,3.26
2017-03-01T08:23:12.567Z,3.26
2017-03-01T08:24:23.257Z,3.22
2017-03-01T08:25:33.969Z,3.18
2017-03-01T08:26:44.679Z,3.34
2017-03-01T08:27:54.980Z,3.33
2017-03-01T08:29:05.695Z,3.37
2017-03-01T08:30:16.388Z,3.3
2017-03-01T08:31:26.715Z,3.34
2017-03-01T08:32:37.450Z,3.29
2017-03-01T08:33:48.169Z,3.21
2017-03-01T08:34:58.880Z,2.97
2017-03-01T08:36:09.593Z,2.91
2017-03-01T08:37:20.285Z,2.98
2017-03-01T08:38:30.579Z,3
2017-03-01T08:39:40.890Z,2.85
2017-03-01T08:40:50.803Z,2.72
2017-03-01T08:42:00.717Z,2.73
2017-03-01T08:43:11.414Z,2.64
2017-03-01T08:44:21.726Z,2.68
2017-03-01T08:45:32.467Z,2.64
2017-03-01T08:46:43.176Z,2.57
2017-03-01T08:47:53.496Z,2.54
2017-03-01T08:49:03.810Z,2.46
2017-03-01T08:50:14.112Z,2.52
2017-03-01T08:51:24.833Z,2.37
2017-03-01T08:52:35.161Z,2.36
2017-03-01T08:53:45.866Z,2.23
2017-03-01T08:54:56.581Z,2.37
2017-03-01T08:56:07.301Z,2.41
2017-03-01T08:57:17.606Z,2.36
2017-03-01T08:58:28.326Z,2.3
2017-03-01T08:59:39.053Z,2.26
2017-03-01T09:00:49.752Z,2.4
2017-03-01T09:02:00.472Z,2.3
2017-03-01T09:03:11.166Z,2.41
2017-03-01T09:04:21.472Z,2.51
2017-03-01T09:05:32.181Z,2.58
2017-03-01T09:06:42.891Z,2.54
2017-03-01T09:07:53.622Z,2.65
2017-03-01T09:09:04.344Z,2.7
2017-03-01T09:10:15.037Z,2.72
2017-03-01T09:11:25.778Z,2.76
2017-03-01T09:12:36.484Z,2.82
2017-03-01T09:13:47.215Z,2.83
2017-03-01T09:14:57.915Z,2.88
2017-03-01T09:16:08.642Z,2.93
2017-03-01T09:17:19.365Z,3
2017-03-01T09:18:30.074Z,2.97
2017-03-01T09:19:40.768Z,3.05
2017-03-01T09:20:50.683Z,3.18
2017-03-01T09:22:00.197Z,3.27
2017-03-01T09:23:10.889Z,3.31
2017-03-01T09:24:21.219Z,3.43
2017-03-01T09:25:31.937Z,3.49
2017-03-01T09:26:42.246Z,3.46
2017-03-01T09:27:52.957Z,3.5
2017-03-01T09:29:03.268Z,3.56
2017-03-01T09:30:13.174Z,3.45
2017-03-01T09:31:23.869Z,3.45
2017-03-01T09:32:34.190Z,3.3
2017-03-01T09:33:44.111Z,3.33
2017-03-01T09:34:54.422Z,3.4
2017-03-01T09:36:05.144Z,3.27
2017-03-01T09:37:15.864Z,3.41
2017-03-01T09:38:26.177Z,3.56
2017-03-01T09:39:36.896Z,3.55
2017-03-01T09:40:47.235Z,3.48
2017-03-01T09:41:57.957Z,3.46
2017-03-01T09:43:08.661Z,3.27
2017-03-01T09:44:19.662Z,3.37
2017-03-01T09:45:29.982Z,3.21
2017-03-01T09:46:40.690Z,3.31
2017-03-01T09:47:51.027Z,3.3
2017-03-01T09:49:01.332Z,3.3
2017-03-01T09:50:11.262Z,3.41
2017-03-01T09:51:21.981Z,3.55
2017-03-01T09:52:32.328Z,3.67
2017-03-01T09:53:42.635Z,3.45
2017-03-01T09:54:53.338Z,3.56
2017-03-01T09:56:03.673Z,3.48
2017-03-01T09:57:14.375Z,3.53
2017-03-01T09:58:24.680Z,3.43
2017-03-01T09:59:35.390Z,3.52
2017-03-01T10:00:46.090Z,3.43
2017-03-01T10:01:56.811Z,3.41
2017-03-01T10:03:07.541Z,3.33
2017-03-01T10:04:18.259Z,3.18
2017-03-01T10:05:28.198Z,3.12
2017-03-01T10:06:38.919Z,3.12
2017-03-01T10:07:49.650Z,3.15
2017-03-01T10:08:59.955Z,3.19
2017-03-01T10:10:10.260Z,3.11
2017-03-01T10:11:20.965Z,3.08
2017-03-01T10:12:30.887Z,3.01
2017-03-01T10:13:41.206Z,2.95
2017-03-01T10:14:51.914Z,2.88
2017-03-01T10:16:01.817Z,2.91
2017-03-01T10:17:12.120Z,2.93
2017-03-01T10:18:22.824Z,2.88
2017-03-01T10:19:33.135Z,2.97
2017-03-01T10:20:43.853Z,2.94
2017-03-01T10:21:54.159Z,3.05
2017-03-01T10:23:03.664Z,2.97
2017-03-01T10:24:14.388Z,3.08
2017-03-01T10:25:25.103Z,2.97
2017-03-01T10:26:35.818Z,3.06
2017-03-01T10:27:46.138Z,2.97
2017-03-01T10:28:56.861Z,3.03
2017-03-01T10:30:07.564Z,3.05
2017-03-01T10:31:18.271Z,3.01
2017-03-01T10:32:28.995Z,3.08
2017-03-01T10:33:39.332Z,3.03
2017-03-01T10:34:49.635Z,3.03
2017-03-01T10:36:00.348Z,3.12
2017-03-01T10:37:11.066Z,3.16
2017-03-01T10:38:21.388Z,3.15
2017-03-01T10:39:32.112Z,3.26
2017-03-01T10:40:42.824Z,3.24
2017-03-01T10:41:53.523Z,3.19
2017-03-01T10:43:04.417Z,3.41
2017-03-01T10:44:15.132Z,3.4
2017-03-01T10:45:25.840Z,3.45
2017-03-01T10:46:36.557Z,3.43
2017-03-01T10:47:47.281Z,3.45
2017-03-01T10:48:58.022Z,3.55
2017-03-01T10:50:08.359Z,3.68
2017-03-01T10:51:18.675Z,3.55
2017-03-01T10:52:29.383Z,3.61
2017-03-01T10:53:40.087Z,3.58
2017-03-01T10:54:50.808Z,3.58
2017-03-01T10:56:01.140Z,3.68
2017-03-01T10:57:11.842Z,3.74
2017-03-01T10:58:22.545Z,3.81
2017-03-01T10:59:32.860Z,3.96
2017-03-01T11:00:43.564Z,3.99
2017-03-01T11:01:53.909Z,4.1
2017-03-01T11:03:04.621Z,4.27
2017-03-01T11:04:15.332Z,4.18
2017-03-01T11:05:26.072Z,4.3
2017-03-01T11:06:36.787Z,4.3
2017-03-01T11:07:47.148Z,4.38
2017-03-01T11:08:57.857Z,4.46
2017-03-01T11:10:08.170Z,4.42
2017-03-01T11:11:18.891Z,4.53
2017-03-01T11:12:29.623Z,4.6
2017-03-01T11:13:39.955Z,4.66
2017-03-01T11:14:50.665Z,4.64
2017-03-01T11:16:01.012Z,4.67
2017-03-01T11:17:11.734Z,4.58
2017-03-01T11:18:22.444Z,4.49
2017-03-01T11:19:32.743Z,4.46
2017-03-01T11:20:43.074Z,4.5
2017-03-01T11:21:53.374Z,4.67
2017-03-01T11:23:04.090Z,4.75
2017-03-01T11:24:14.845Z,4.79
2017-03-01T11:25:25.575Z,4.84
2017-03-01T11:26:36.274Z,4.71
2017-03-01T11:27:46.978Z,4.74
2017-03-01T11:28:57.734Z,4.82
2017-03-01T11:30:08.034Z,4.66
2017-03-01T11:31:18.756Z,4.61
2017-03-01T11:32:29.501Z,4.74
2017-03-01T11:33:40.206Z,4.74
2017-03-01T11:34:50.540Z,4.64
2017-03-01T11:36:01.269Z,4.79
2017-03-01T11:37:11.583Z,4.74
2017-03-01T11:38:22.298Z,4.76
2017-03-01T11:39:32.212Z,4.7
2017-03-01T11:40:42.925Z,4.68
2017-03-01T11:41:53.641Z,4.6
2017-03-01T11:43:03.972Z,4.7
2017-03-01T11:44:14.304Z,4.66
2017-03-01T11:45:25.016Z,4.76
2017-03-01T11:46:35.343Z,4.83
2017-03-01T11:47:45.653Z,4.97
2017-03-01T11:48:56.358Z,5.04
2017-03-01T11:50:07.078Z,5
2017-03-01T11:51:17.788Z,4.97
2017-03-01T11:52:28.113Z,5.16
2017-03-01T11:53:38.839Z,5.16
2017-03-01T11:54:49.565Z,5.25
2017-03-01T11:55:59.890Z,5.34
2017-03-01T11:57:10.218Z,5.46
2017-03-01T11:58:20.534Z,5.58
2017-03-01T11:59:30.843Z,5.77
2017-03-01T12:00:41.166Z,5.7
2017-03-01T12:01:51.902Z,5.79
2017-03-01T12:03:01.812Z,5.92
2017-03-01T12:04:12.148Z,6.01
2017-03-01T12:05:22.868Z,6.02
2017-03-01T12:06:32.804Z,6.16
2017-03-01T12:07:43.519Z,5.98
2017-03-01T12:08:53.832Z,5.84
2017-03-01T12:10:04.165Z,6.05
2017-03-01T12:11:14.889Z,6.53
2017-03-01T12:12:25.200Z,6.87
2017-03-01T12:13:35.528Z,7.7
2017-03-01T12:14:46.248Z,8.18
2017-03-01T12:15:56.562Z,8.75
2017-03-01T12:17:07.296Z,9.16
2017-03-01T12:18:18.010Z,9.44
2017-03-01T12:19:28.740Z,9.94
2017-03-01T12:20:39.053Z,10.17
2017-03-01T12:21:49.380Z,10.61
2017-03-01T12:22:59.700Z,10.67
2017-03-01T12:24:10.020Z,10
2017-03-01T12:25:20.753Z,9.33
2017-03-01T12:26:31.073Z,8.74
2017-03-01T12:27:41.407Z,8.36
2017-03-01T12:28:52.122Z,8.26
2017-03-01T12:30:02.443Z,7.87
2017-03-01T12:31:12.382Z,7.78
2017-03-01T12:32:22.741Z,7.58
2017-03-01T12:33:33.068Z,7.4
2017-03-01T12:34:43.769Z,7.23
2017-03-01T12:35:54.079Z,6.83
2017-03-01T12:37:04.417Z,6.75
2017-03-01T12:38:15.147Z,6.67
2017-03-01T12:39:25.859Z,6.56
2017-03-01T12:40:36.163Z,6.41
2017-03-01T12:41:46.482Z,6.35
2017-03-01T12:42:56.800Z,6.19
2017-03-01T12:44:07.508Z,6.17
2017-03-01T12:45:18.239Z,5.94
2017-03-01T12:46:28.549Z,5.8
2017-03-01T12:47:38.092Z,5.59
2017-03-01T12:48:48.407Z,5.7
2017-03-01T12:49:59.113Z,5.55
2017-03-01T12:51:09.850Z,5.46
2017-03-01T12:52:19.783Z,5.4
2017-03-01T12:53:29.719Z,5.49
2017-03-01T12:54:40.071Z,5.38
2017-03-01T12:55:50.767Z,5.29
2017-03-01T12:57:01.087Z,5.28
2017-03-01T12:58:11.840Z,5.22
2017-03-01T12:59:21.776Z,5.12
2017-03-01T13:00:32.096Z,5.23
2017-03-01T13:01:42.805Z,5.2
2017-03-01T13:02:53.529Z,5.2
2017-03-01T13:04:04.234Z,5.2
2017-03-01T13:05:14.953Z,5.23
2017-03-01T13:06:25.273Z,5.33
2017-03-01T13:07:35.600Z,5.18
2017-03-01T13:08:45.914Z,5.19
2017-03-01T13:09:58.634Z,5.1
2017-03-01T13:11:09.359Z,5.01
2017-03-01T13:12:20.077Z,5.01
2017-03-01T13:13:30.795Z,5.16
2017-03-01T13:14:41.494Z,5.26
2017-03-01T13:15:50.619Z,5.23
2017-03-01T13:17:00.946Z,5.22
2017-03-01T13:18:11.281Z,5.22
2017-03-01T13:19:22.004Z,5.25
2017-03-01T13:20:32.700Z,5.28
2017-03-01T13:21:43.399Z,5.18
2017-03-01T13:22:54.124Z,5.08
2017-03-01T13:24:04.835Z,5.1
2017-03-01T13:25:15.145Z,5.02
2017-03-01T13:26:25.858Z,4.92
2017-03-01T13:27:36.575Z,4.97
2017-03-01T13:28:47.295Z,4.94
2017-03-01T13:29:58.015Z,4.76
2017-03-01T13:31:08.737Z,4.75
2017-03-01T13:32:19.444Z,4.82
2017-03-01T13:33:30.165Z,4.67
2017-03-01T13:34:40.888Z,4.57
2017-03-01T13:35:51.599Z,4.63
2017-03-01T13:37:02.308Z,4.5
2017-03-01T13:38:13.054Z,4.5
2017-03-01T13:39:23.748Z,4.52
2017-03-01T13:40:34.061Z,4.57
2017-03-01T13:41:44.805Z,4.5
2017-03-01T13:42:54.715Z,4.61
2017-03-01T13:44:05.044Z,4.64
2017-03-01T13:45:14.960Z,4.6
2017-03-01T13:46:25.259Z,4.58
2017-03-01T13:47:35.577Z,4.6
2017-03-01T13:48:46.297Z,4.49
2017-03-01T13:49:56.226Z,4.5
2017-03-01T13:51:06.953Z,4.6
2017-03-01T13:52:17.271Z,4.63
2017-03-01T13:53:27.569Z,4.53
2017-03-01T13:54:37.489Z,4.48
2017-03-01T13:55:47.790Z,4.63
2017-03-01T13:56:58.098Z,4.52
2017-03-01T13:58:08.803Z,4.5
2017-03-01T13:59:19.153Z,4.58
2017-03-01T14:00:29.866Z,4.53
2017-03-01T14:01:40.187Z,4.46
2017-03-01T14:02:50.884Z,4.57
2017-03-01T14:04:01.187Z,4.74
2017-03-01T14:05:11.513Z,4.6
2017-03-01T14:06:22.238Z,4.64
2017-03-01T14:07:32.951Z,4.71
2017-03-01T14:08:43.675Z,4.7
2017-03-01T14:09:54.386Z,4.7
2017-03-01T14:11:05.094Z,4.7
2017-03-01T14:12:15.007Z,4.52
2017-03-01T14:13:25.734Z,4.49
2017-03-01T14:14:36.436Z,4.58
2017-03-01T14:15:46.365Z,4.46
2017-03-01T14:16:56.679Z,4.6
2017-03-01T14:18:07.393Z,4.57
2017-03-01T14:19:17.705Z,4.63
2017-03-01T14:20:28.420Z,4.58
2017-03-01T14:21:38.734Z,4.64
2017-03-01T14:22:49.061Z,4.6
2017-03-01T14:23:59.769Z,4.74
2017-03-01T14:25:10.080Z,4.76
2017-03-01T14:26:20.779Z,4.67
2017-03-01T14:27:31.520Z,4.78
2017-03-01T14:28:41.424Z,4.67
2017-03-01T14:29:52.132Z,4.7
2017-03-01T14:31:02.831Z,4.76
2017-03-01T14:32:13.134Z,4.7
2017-03-01T14:33:23.051Z,4.7
2017-03-01T14:34:33.773Z,4.71
2017-03-01T14:35:44.523Z,4.66
2017-03-01T14:36:54.845Z,4.67
2017-03-01T14:38:05.541Z,4.76
2017-03-01T14:39:15.869Z,4.76
2017-03-01T14:40:26.195Z,4.83
2017-03-01T14:41:36.510Z,4.83
2017-03-01T14:42:46.837Z,4.97
2017-03-01T14:43:57.551Z,4.94
2017-03-01T14:45:07.863Z,4.95
2017-03-01T14:46:17.777Z,4.9
2017-03-01T14:47:28.475Z,4.84
2017-03-01T14:48:38.413Z,4.79
2017-03-01T14:49:48.733Z,4.75
2017-03-01T14:50:59.051Z,4.71
2017-03-01T14:52:09.764Z,4.68
2017-03-01T14:53:20.063Z,4.68
2017-03-01T14:54:30.796Z,4.66
2017-03-01T14:55:41.104Z,4.63
2017-03-01T14:56:51.404Z,4.66
2017-03-01T14:58:02.126Z,4.5
2017-03-01T14:59:12.871Z,4.5
2017-03-01T15:00:23.587Z,4.45
2017-03-01T15:01:34.282Z,4.5
2017-03-01T15:02:44.992Z,4.45
2017-03-01T15:03:55.308Z,4.3
2017-03-01T15:05:06.018Z,4.34
2017-03-01T15:06:16.339Z,4.27
2017-03-01T15:07:26.654Z,4.3
2017-03-01T15:08:37.356Z,4.27
2017-03-01T15:09:48.087Z,4.3
2017-03-01T15:10:58.786Z,4.31
2017-03-01T15:12:09.511Z,4.27
2017-03-01T15:13:19.821Z,4.28
2017-03-01T15:14:30.530Z,4.25
2017-03-01T15:15:41.249Z,4.22
2017-03-01T15:16:50.756Z,4.32
2017-03-01T15:18:01.462Z,4.3
2017-03-01T15:19:12.160Z,4.32
2017-03-01T15:20:22.077Z,4.31
2017-03-01T15:21:32.778Z,4.34
2017-03-01T15:22:43.088Z,4.36
2017-03-01T15:23:53.788Z,4.31
2017-03-01T15:25:04.499Z,4.3
2017-03-01T15:26:15.217Z,4.27
2017-03-01T15:27:25.139Z,4.25
2017-03-01T15:28:35.857Z,4.27
2017-03-01T15:29:46.171Z,4.31
2017-03-01T15:30:58.889Z,4.28
2017-03-01T15:32:09.584Z,4.24
2017-03-01T15:33:19.909Z,4.25
2017-03-01T15:34:30.605Z,4.25
2017-03-01T15:35:40.910Z,4.18
2017-03-01T15:36:51.230Z,4.13
2017-03-01T15:38:01.940Z,4.12
2017-03-01T15:39:12.685Z,4.09
2017-03-01T15:40:23.412Z,4.14
2017-03-01T15:41:33.737Z,4.03
2017-03-01T15:42:44.463Z,3.94
2017-03-01T15:43:54.804Z,3.92